CMB804 Details

Departure: Guantánamo Bay Naval Air Station (MUGM)
Arrival: Norfolk Naval Station (Chambers Field) (KNGU)
Route: SOUTP EASTP ZIN Y350 ZQA BR65V ZFP WOLFO AR18 PANAL AR3 CLB ISO DRONE2
Notes: USTRANSCOM CONTRACT FLIGHT | OVERFLIGHT OF CUBA PROHIBITED, SOUTP & EASTP FIXES MANDATORY


Current Weather Information
MUGM 212156Z 19005KT 9999 FEW030 BKN120 BKN250 29/27 A2989 RMK SLP123 T02890267
KNGU 212159Z 03012KT 10SM FEW090 BKN300 22/13 A3003 RMK AO2 SLP168 T02170128